createdAt,value
2018-05-17T00:02:22.490Z,6.97
2018-05-17T00:04:50.108Z,7.60
2018-05-17T00:07:18.189Z,6.50
2018-05-17T00:09:46.071Z,6.60
2018-05-17T00:12:14.437Z,5.20
2018-05-17T00:14:42.631Z,6.20
2018-05-17T00:17:10.940Z,6.20
2018-05-17T00:19:38.765Z,5.37
2018-05-17T00:22:07.202Z,5.27
2018-05-17T00:24:34.800Z,5.33
2018-05-17T00:27:02.528Z,5.77
2018-05-17T00:29:30.573Z,5.70
2018-05-17T00:31:58.187Z,5.00
2018-05-17T00:34:25.820Z,5.40
2018-05-17T00:36:53.378Z,6.53
2018-05-17T00:39:21.437Z,5.93
2018-05-17T00:41:50.012Z,4.83
2018-05-17T00:44:17.767Z,5.27
2018-05-17T00:46:45.327Z,6.53
2018-05-17T00:49:13.176Z,4.90
2018-05-17T00:51:40.717Z,5.20
2018-05-17T00:54:08.263Z,5.03
2018-05-17T00:56:37.117Z,6.30
2018-05-17T00:59:04.724Z,5.87
2018-05-17T01:01:32.401Z,4.70
2018-05-17T01:04:00.163Z,5.00
2018-05-17T01:06:28.007Z,5.70
2018-05-17T01:08:56.840Z,6.90
2018-05-17T01:11:24.478Z,5.60
2018-05-17T01:13:52.036Z,4.93
2018-05-17T01:16:20.078Z,5.00
2018-05-17T01:18:48.412Z,4.83
2018-05-17T01:21:16.096Z,5.13
2018-05-17T01:23:45.223Z,5.20
2018-05-17T01:26:12.889Z,5.17
2018-05-17T01:28:40.431Z,4.73
2018-05-17T01:31:08.928Z,5.40
2018-05-17T01:33:36.691Z,5.17
2018-05-17T01:36:04.400Z,5.03
2018-05-17T01:38:31.945Z,4.50
2018-05-17T01:40:59.553Z,5.10
2018-05-17T01:43:28.151Z,4.57
2018-05-17T01:45:55.811Z,4.53
2018-05-17T01:48:23.706Z,4.53
2018-05-17T01:50:51.258Z,4.47
2018-05-17T01:53:18.999Z,4.20
2018-05-17T01:55:46.696Z,4.80
2018-05-17T01:58:14.568Z,4.07
2018-05-17T02:00:42.113Z,4.27
2018-05-17T02:03:10.099Z,5.03
2018-05-17T02:05:37.652Z,5.10
2018-05-17T02:08:05.605Z,4.40
2018-05-17T02:10:33.329Z,5.43
2018-05-17T02:13:01.968Z,4.93
2018-05-17T02:15:29.818Z,4.43
2018-05-17T02:17:57.564Z,4.27
2018-05-17T02:20:25.104Z,4.37
2018-05-17T02:22:53.004Z,4.47
2018-05-17T02:25:20.664Z,5.13
2018-05-17T02:27:48.653Z,4.53
2018-05-17T02:30:16.867Z,3.93
2018-05-17T02:32:45.395Z,3.87
2018-05-17T02:35:12.936Z,4.30
2018-05-17T02:37:40.914Z,4.30
2018-05-17T02:40:08.612Z,4.23
2018-05-17T02:42:36.519Z,3.90
2018-05-17T02:45:04.176Z,4.43
2018-05-17T02:47:32.292Z,3.93
2018-05-17T02:50:00.012Z,3.97
2018-05-17T02:52:27.560Z,3.93
2018-05-17T02:54:55.489Z,3.67
2018-05-17T02:57:23.257Z,4.27
2018-05-17T02:59:51.119Z,4.90
2018-05-17T03:02:18.955Z,4.20
2018-05-17T03:04:46.582Z,6.47
2018-05-17T03:07:15.216Z,4.73
2018-05-17T03:09:42.924Z,4.77
2018-05-17T03:12:11.597Z,4.13
2018-05-17T03:14:39.592Z,4.10
2018-05-17T03:17:07.323Z,5.83
2018-05-17T03:19:35.141Z,4.90
2018-05-17T03:22:03.228Z,8.30
2018-05-17T03:24:30.811Z,6.57
2018-05-17T03:26:58.524Z,4.83
2018-05-17T03:29:26.164Z,5.03
2018-05-17T03:31:53.956Z,6.20
2018-05-17T03:34:21.807Z,7.80
2018-05-17T03:36:49.483Z,5.53
2018-05-17T03:39:17.345Z,10.53
2018-05-17T03:41:44.941Z,7.07
2018-05-17T03:44:12.485Z,5.10
2018-05-17T03:46:40.269Z,5.07
2018-05-17T03:49:07.869Z,5.00
2018-05-17T03:51:35.644Z,4.87
2018-05-17T03:54:03.329Z,5.10
2018-05-17T03:56:30.879Z,5.17
2018-05-17T03:58:58.426Z,5.77
2018-05-17T04:01:38.148Z,4.37
2018-05-17T04:07:04.621Z,4.77
2018-05-17T04:09:32.558Z,5.27
2018-05-17T04:12:00.461Z,5.17
2018-05-17T04:14:28.495Z,4.87
2018-05-17T04:16:56.251Z,4.67
2018-05-17T04:19:24.848Z,4.90
2018-05-17T04:21:52.437Z,5.33
2018-05-17T04:24:20.227Z,4.53
2018-05-17T04:26:47.961Z,4.20
2018-05-17T04:29:15.852Z,6.70
2018-05-17T04:31:43.795Z,4.13
2018-05-17T04:34:11.417Z,5.50
2018-05-17T04:36:39.279Z,4.50
2018-05-17T04:39:07.122Z,5.53
2018-05-17T04:41:34.686Z,4.83
2018-05-17T04:44:02.576Z,6.97
2018-05-17T04:46:31.078Z,4.53
2018-05-17T04:48:58.647Z,5.37
2018-05-17T04:51:26.327Z,4.63
2018-05-17T04:53:54.181Z,5.10
2018-05-17T04:56:21.727Z,4.30
2018-05-17T04:58:49.498Z,6.10
2018-05-17T05:01:17.116Z,6.67
2018-05-17T05:03:44.709Z,5.13
2018-05-17T05:06:12.288Z,5.63
2018-05-17T05:08:39.910Z,5.63
2018-05-17T05:11:07.871Z,5.70
2018-05-17T05:13:36.640Z,5.27
2018-05-17T05:16:04.762Z,5.43
2018-05-17T05:18:32.449Z,6.13
2018-05-17T05:21:00.347Z,5.30
2018-05-17T05:23:28.657Z,6.63
2018-05-17T05:25:56.291Z,10.00
2018-05-17T05:28:24.716Z,10.83
2018-05-17T05:30:52.464Z,10.03
2018-05-17T05:33:20.305Z,8.00
2018-05-17T05:35:48.300Z,11.70
2018-05-17T05:38:16.166Z,7.50
2018-05-17T05:40:43.826Z,11.93
2018-05-17T05:43:11.985Z,9.10
2018-05-17T05:45:39.496Z,10.13
2018-05-17T05:48:07.309Z,6.63
2018-05-17T05:50:35.021Z,8.23
2018-05-17T05:53:02.700Z,10.00
2018-05-17T05:55:30.405Z,8.80
2018-05-17T05:57:58.320Z,7.17
2018-05-17T06:00:25.934Z,4.17
2018-05-17T06:02:53.623Z,4.93
2018-05-17T06:05:21.273Z,4.93
2018-05-17T06:07:48.816Z,5.20
2018-05-17T06:10:16.847Z,5.53
2018-05-17T06:12:45.319Z,4.57
2018-05-17T06:15:13.896Z,5.10
2018-05-17T06:17:41.490Z,5.97
2018-05-17T06:20:09.488Z,4.40
2018-05-17T06:22:37.043Z,4.07
2018-05-17T06:25:04.883Z,5.10
2018-05-17T06:27:33.304Z,3.93
2018-05-17T06:30:00.979Z,5.80
2018-05-17T06:32:28.667Z,4.60
2018-05-17T06:34:57.371Z,4.87
2018-05-17T06:37:25.016Z,4.97
2018-05-17T06:39:52.602Z,4.53
2018-05-17T06:42:20.640Z,3.60
2018-05-17T06:44:48.360Z,4.40
2018-05-17T06:47:16.236Z,3.80
2018-05-17T06:49:43.826Z,3.63
2018-05-17T06:52:11.680Z,3.50
2018-05-17T06:54:39.252Z,3.97
2018-05-17T06:57:08.070Z,3.13
2018-05-17T06:59:35.964Z,4.13
2018-05-17T07:02:04.107Z,5.37
2018-05-17T07:04:31.690Z,3.63
2018-05-17T07:06:59.643Z,6.90
2018-05-17T07:09:27.876Z,3.47
2018-05-17T07:11:56.322Z,3.67
2018-05-17T07:14:23.865Z,3.30
2018-05-17T07:16:51.410Z,3.87
2018-05-17T07:19:19.167Z,3.20
2018-05-17T07:21:46.724Z,3.40
2018-05-17T07:24:14.408Z,9.43
2018-05-17T07:26:41.873Z,6.40
2018-05-17T07:29:09.416Z,27.00
2018-05-17T07:31:37.236Z,29.60
2018-05-17T07:34:05.065Z,19.67
2018-05-17T07:36:32.616Z,9.17
2018-05-17T07:39:00.164Z,56.00
2018-05-17T07:41:27.773Z,7.40
2018-05-17T07:43:55.320Z,10.97
2018-05-17T07:46:23.878Z,15.30
2018-05-17T07:48:51.456Z,9.50
2018-05-17T07:51:19.861Z,2.87
2018-05-17T07:53:47.407Z,3.37
2018-05-17T07:56:15.747Z,3.43
2018-05-17T07:58:44.809Z,3.03
2018-05-17T08:01:12.365Z,9.13
2018-05-17T08:03:39.936Z,7.63
2018-05-17T08:06:07.476Z,4.13
2018-05-17T08:08:35.131Z,2.40
2018-05-17T08:11:02.895Z,2.90
2018-05-17T08:13:30.912Z,15.17
2018-05-17T08:15:58.456Z,5.53
2018-05-17T08:18:26.063Z,18.33
2018-05-17T08:20:54.994Z,5.87
2018-05-17T08:23:22.714Z,2.60
2018-05-17T08:25:50.513Z,2.10
2018-05-17T08:28:18.106Z,3.20
2018-05-17T08:30:45.716Z,6.30
2018-05-17T08:33:13.301Z,2.77
2018-05-17T08:35:41.349Z,3.77
2018-05-17T08:38:08.992Z,8.13
2018-05-17T08:40:36.793Z,7.50
2018-05-17T08:43:04.650Z,4.37
2018-05-17T08:45:32.504Z,3.30
2018-05-17T08:48:00.099Z,2.60
2018-05-17T08:50:28.112Z,2.00
2018-05-17T08:52:56.428Z,4.87
2018-05-17T08:55:24.595Z,2.00
2018-05-17T08:57:52.155Z,1.97
2018-05-17T09:00:19.792Z,2.20
2018-05-17T09:02:47.735Z,3.20
2018-05-17T09:05:15.504Z,2.27
2018-05-17T09:07:43.948Z,3.40
2018-05-17T09:10:11.852Z,2.20
2018-05-17T09:12:40.167Z,2.47
2018-05-17T09:15:07.849Z,1.87
2018-05-17T09:17:35.676Z,2.80
2018-05-17T09:20:03.324Z,2.00
2018-05-17T09:22:31.049Z,2.20
2018-05-17T09:24:59.227Z,2.03
2018-05-17T09:27:26.984Z,1.63
2018-05-17T09:29:55.092Z,1.40
2018-05-17T09:32:22.688Z,1.83
2018-05-17T09:34:50.852Z,2.20
2018-05-17T09:37:18.501Z,1.53
2018-05-17T09:39:46.544Z,1.53
2018-05-17T09:42:14.102Z,1.60
2018-05-17T09:44:41.700Z,1.67
2018-05-17T09:47:09.472Z,1.93
2018-05-17T09:49:37.068Z,1.97
2018-05-17T09:52:04.611Z,1.60
2018-05-17T09:54:32.183Z,2.00
2018-05-17T09:56:59.961Z,2.00
2018-05-17T09:59:27.574Z,1.63
2018-05-17T10:01:55.211Z,1.60
2018-05-17T10:04:22.999Z,3.17
2018-05-17T10:06:50.552Z,2.93
2018-05-17T10:09:18.234Z,5.43
2018-05-17T10:11:45.977Z,5.13
2018-05-17T10:14:13.520Z,1.50
2018-05-17T10:16:41.290Z,6.00
2018-05-17T10:19:09.154Z,2.90
2018-05-17T10:21:36.691Z,1.63
2018-05-17T10:24:04.303Z,4.43
2018-05-17T10:26:31.855Z,3.47
2018-05-17T10:29:00.061Z,2.77
2018-05-17T10:31:28.892Z,3.17
2018-05-17T10:33:56.612Z,3.37
2018-05-17T10:36:25.306Z,2.80
2018-05-17T10:38:54.033Z,2.27
2018-05-17T10:41:21.782Z,2.00
2018-05-17T10:43:49.333Z,2.23
2018-05-17T10:46:17.176Z,2.83
2018-05-17T10:48:45.774Z,2.00
2018-05-17T10:51:13.720Z,2.30
2018-05-17T10:53:41.608Z,3.80
2018-05-17T10:56:09.228Z,4.27
2018-05-17T10:58:36.814Z,3.77
2018-05-17T11:01:04.778Z,3.93
2018-05-17T11:03:33.113Z,3.33
2018-05-17T11:06:01.333Z,2.83
2018-05-17T11:08:29.334Z,3.90
2018-05-17T11:10:57.660Z,3.80
2018-05-17T11:13:26.176Z,5.10
2018-05-17T11:15:54.081Z,2.60
2018-05-17T11:18:21.639Z,3.10
2018-05-17T11:20:49.180Z,2.67
2018-05-17T11:23:16.757Z,2.00
2018-05-17T11:25:44.313Z,3.30
2018-05-17T11:28:12.097Z,2.00
2018-05-17T11:30:40.123Z,2.47
2018-05-17T11:33:08.016Z,3.97
2018-05-17T11:35:35.500Z,1.60
2018-05-17T11:38:03.859Z,2.33
2018-05-17T11:40:31.612Z,2.93
2018-05-17T11:42:59.250Z,3.40
2018-05-17T11:45:26.955Z,2.20
2018-05-17T11:47:55.268Z,1.60
2018-05-17T11:50:22.929Z,2.40
2018-05-17T11:52:50.952Z,2.60
2018-05-17T11:55:18.504Z,2.87
2018-05-17T11:57:46.439Z,2.57
2018-05-17T12:00:14.155Z,2.10
2018-05-17T12:02:42.517Z,2.83
2018-05-17T12:05:10.132Z,3.70
2018-05-17T12:07:37.868Z,3.17
2018-05-17T12:10:05.657Z,2.83
2018-05-17T12:12:33.213Z,3.00
2018-05-17T12:15:01.294Z,4.83
2018-05-17T12:17:29.153Z,3.03
2018-05-17T12:19:56.716Z,3.30
2018-05-17T12:22:24.265Z,2.70
2018-05-17T12:24:51.857Z,2.50
2018-05-17T12:27:20.013Z,6.87
2018-05-17T12:29:47.888Z,1.77
2018-05-17T12:32:15.764Z,3.00
2018-05-17T12:34:43.311Z,2.13
2018-05-17T12:37:10.947Z,3.03
2018-05-17T12:39:38.480Z,3.10
2018-05-17T12:42:06.028Z,1.97
2018-05-17T12:44:34.379Z,1.97
2018-05-17T12:47:02.031Z,2.20
2018-05-17T12:49:29.772Z,1.23
2018-05-17T12:51:57.907Z,1.57
2018-05-17T12:54:26.252Z,1.33
2018-05-17T12:56:54.422Z,1.77
2018-05-17T12:59:22.285Z,1.50
2018-05-17T13:01:50.336Z,2.20
2018-05-17T13:04:17.912Z,1.50
2018-05-17T13:06:45.536Z,1.40
2018-05-17T13:09:13.652Z,2.13
2018-05-17T13:11:43.522Z,4.27
2018-05-17T13:14:11.085Z,1.87
2018-05-17T13:16:38.807Z,3.23
2018-05-17T13:19:07.478Z,3.57
2018-05-17T13:21:35.025Z,3.27
2018-05-17T13:24:04.129Z,1.87
2018-05-17T13:26:33.240Z,2.90
2018-05-17T13:29:01.151Z,2.23
2018-05-17T13:31:28.734Z,3.33
2018-05-17T13:33:56.679Z,3.87
2018-05-17T13:36:24.419Z,2.07
2018-05-17T13:38:52.310Z,1.60
2018-05-17T13:41:20.496Z,2.27
2018-05-17T13:43:48.079Z,2.73
2018-05-17T13:46:15.677Z,2.40
2018-05-17T13:48:43.536Z,2.20
2018-05-17T13:51:11.235Z,4.03
2018-05-17T13:53:38.931Z,3.07
2018-05-17T13:56:07.878Z,4.57
2018-05-17T13:58:35.647Z,6.50
2018-05-17T14:01:03.227Z,8.90
2018-05-17T14:03:30.788Z,2.13
2018-05-17T14:05:58.359Z,2.60
2018-05-17T14:08:25.948Z,9.87
2018-05-17T14:10:53.512Z,10.47
2018-05-17T14:13:21.169Z,16.57
2018-05-17T14:15:48.800Z,14.43
2018-05-17T14:18:16.621Z,8.97
2018-05-17T14:20:44.695Z,8.67
2018-05-17T14:23:12.773Z,6.90
2018-05-17T14:25:41.036Z,3.30
2018-05-17T14:28:08.785Z,3.10
2018-05-17T14:30:36.372Z,5.13
2018-05-17T14:33:04.223Z,3.63
2018-05-17T14:35:32.037Z,1.70
2018-05-17T14:38:00.363Z,3.43
2018-05-17T14:40:28.218Z,3.33
2018-05-17T14:42:56.179Z,3.57
2018-05-17T14:45:25.616Z,2.37
2018-05-17T14:47:53.160Z,1.30
2018-05-17T14:50:20.983Z,2.17
2018-05-17T14:52:48.617Z,2.17
2018-05-17T14:55:16.963Z,23.70
2018-05-17T14:57:44.604Z,4.27
2018-05-17T15:00:13.941Z,8.47
2018-05-17T15:02:41.496Z,15.37
2018-05-17T15:05:09.232Z,10.53
2018-05-17T15:07:37.209Z,21.23
2018-05-17T15:10:04.928Z,21.50
2018-05-17T15:12:33.452Z,14.80
2018-05-17T15:15:01.263Z,7.37
2018-05-17T15:17:28.963Z,16.50
2018-05-17T15:19:56.722Z,4.10
2018-05-17T15:22:24.314Z,6.43
2018-05-17T15:24:51.859Z,4.00
2018-05-17T15:27:19.687Z,5.37
2018-05-17T15:29:47.972Z,5.13
2018-05-17T15:32:15.492Z,8.43
2018-05-17T15:34:43.061Z,6.50
2018-05-17T15:37:10.865Z,17.73
2018-05-17T15:39:38.405Z,9.73
2018-05-17T15:42:06.298Z,11.17
2018-05-17T15:44:34.165Z,33.97
2018-05-17T15:47:01.553Z,16.63
2018-05-17T15:49:30.616Z,24.97
2018-05-17T15:51:58.721Z,17.87
2018-05-17T15:54:28.294Z,16.87
2018-05-17T15:56:55.946Z,12.80
2018-05-17T15:59:23.718Z,12.20
2018-05-17T16:01:51.539Z,11.80
2018-05-17T16:04:19.858Z,11.70
2018-05-17T16:06:47.461Z,15.90
2018-05-17T16:09:15.013Z,11.17
2018-05-17T16:11:42.582Z,12.07
2018-05-17T16:14:10.959Z,11.67
2018-05-17T16:16:38.518Z,14.77
2018-05-17T16:19:06.987Z,12.57
2018-05-17T16:21:34.962Z,11.87
2018-05-17T16:24:02.671Z,9.53
2018-05-17T16:26:30.247Z,10.40
2018-05-17T16:28:57.835Z,10.13
2018-05-17T16:31:25.998Z,16.90
2018-05-17T16:33:53.854Z,12.73
2018-05-17T16:36:21.440Z,12.13
2018-05-17T16:38:50.274Z,11.23
2018-05-17T16:41:17.844Z,11.77
2018-05-17T16:43:46.373Z,10.43
2018-05-17T16:46:14.292Z,11.30
2018-05-17T16:48:42.053Z,12.57
2018-05-17T16:51:09.819Z,11.77
2018-05-17T16:53:37.411Z,11.57
2018-05-17T16:56:04.973Z,6.67
2018-05-17T16:58:32.536Z,9.27
2018-05-17T17:01:00.393Z,11.90
2018-05-17T17:03:28.019Z,14.77
2018-05-17T17:05:55.615Z,13.80
2018-05-17T17:08:23.484Z,17.07
2018-05-17T17:10:51.096Z,10.43
2018-05-17T17:13:18.675Z,10.37
2018-05-17T17:15:46.335Z,12.13
2018-05-17T17:18:14.077Z,20.33
2018-05-17T17:20:41.942Z,80.73
2018-05-17T17:23:09.689Z,17.63
2018-05-17T17:25:37.451Z,23.37
2018-05-17T17:28:05.121Z,32.37
2018-05-17T17:30:32.884Z,25.10
2018-05-17T17:33:00.488Z,55.53
2018-05-17T17:35:28.723Z,40.93
2018-05-17T17:37:56.319Z,36.70
2018-05-17T17:40:29.795Z,28.17
2018-05-17T17:42:57.600Z,15.23
2018-05-17T17:45:25.238Z,16.67
2018-05-17T17:47:53.157Z,20.87
2018-05-17T17:50:21.071Z,17.77
2018-05-17T17:52:49.152Z,17.57
2018-05-17T17:55:17.065Z,17.73
2018-05-17T17:57:44.894Z,16.73
2018-05-17T18:00:13.145Z,17.10
2018-05-17T18:02:40.855Z,18.60
2018-05-17T18:05:09.305Z,13.50
2018-05-17T18:07:37.937Z,20.87
2018-05-17T18:10:06.028Z,10.90
2018-05-17T18:12:33.712Z,9.87
2018-05-17T18:15:01.587Z,11.37
2018-05-17T18:17:29.318Z,14.03
2018-05-17T18:19:57.395Z,15.47
2018-05-17T18:22:25.652Z,17.87
2018-05-17T18:24:53.586Z,17.70
2018-05-17T18:27:21.508Z,14.60
2018-05-17T18:29:49.073Z,17.07
2018-05-17T18:32:17.020Z,13.37
2018-05-17T18:34:44.710Z,11.93
2018-05-17T18:37:12.438Z,10.70
2018-05-17T18:39:40.233Z,10.40
2018-05-17T18:42:09.126Z,14.47
2018-05-17T18:44:36.875Z,7.67
2018-05-17T18:47:04.453Z,8.50
2018-05-17T18:49:32.310Z,10.37
2018-05-17T18:51:59.890Z,10.53
2018-05-17T18:54:27.460Z,10.67
2018-05-17T18:56:55.977Z,11.00
2018-05-17T18:59:23.556Z,10.93
2018-05-17T19:01:51.350Z,9.17
2018-05-17T19:04:19.353Z,12.00
2018-05-17T19:06:47.606Z,13.40
2018-05-17T19:09:16.409Z,12.27
2018-05-17T19:11:44.809Z,15.23
2018-05-17T19:14:13.020Z,10.20
2018-05-17T19:16:41.167Z,17.03
2018-05-17T19:19:09.090Z,18.00
2018-05-17T19:21:36.939Z,16.13
2018-05-17T19:24:04.985Z,11.40
2018-05-17T19:26:33.152Z,11.80
2018-05-17T19:29:01.265Z,14.50
2018-05-17T19:31:30.869Z,16.10
2018-05-17T19:33:58.776Z,19.60
2018-05-17T19:36:26.349Z,20.33
2018-05-17T19:38:54.093Z,18.67
2018-05-17T19:41:21.691Z,16.10
2018-05-17T19:43:51.041Z,13.67
2018-05-17T19:46:18.844Z,12.97
2018-05-17T19:48:46.447Z,15.73
2018-05-17T19:51:15.270Z,13.07
2018-05-17T19:53:43.026Z,14.73
2018-05-17T19:56:10.759Z,14.23
2018-05-17T19:58:38.664Z,19.57
2018-05-17T20:01:06.732Z,14.33
2018-05-17T20:03:34.602Z,10.87
2018-05-17T20:06:02.585Z,12.27
2018-05-17T20:08:31.013Z,23.17
2018-05-17T20:10:58.809Z,15.57
2018-05-17T20:13:27.026Z,20.10
2018-05-17T20:15:55.155Z,11.57
2018-05-17T20:18:23.456Z,7.70
2018-05-17T20:20:51.627Z,13.80
2018-05-17T20:23:19.764Z,15.97
2018-05-17T20:25:47.537Z,16.87
2018-05-17T20:28:15.612Z,12.57
2018-05-17T20:30:43.372Z,13.67
2018-05-17T20:33:11.299Z,17.27
2018-05-17T20:35:39.312Z,15.13
2018-05-17T20:38:07.174Z,16.17
2018-05-17T20:40:35.424Z,9.23
2018-05-17T20:43:03.315Z,13.07
2018-05-17T20:45:31.151Z,14.30
2018-05-17T20:47:59.529Z,15.07
2018-05-17T20:50:27.090Z,20.37
2018-05-17T20:52:55.080Z,15.57
2018-05-17T20:55:23.280Z,18.23
2018-05-17T20:57:51.347Z,22.67
2018-05-17T21:00:20.371Z,16.77
2018-05-17T21:02:48.145Z,13.43
2018-05-17T21:05:16.469Z,10.40
2018-05-17T21:07:44.542Z,9.70
2018-05-17T21:10:12.348Z,6.97
2018-05-17T21:12:40.507Z,9.40
2018-05-17T21:15:08.076Z,4.53
2018-05-17T21:17:35.770Z,5.00
2018-05-17T21:20:03.937Z,3.77
2018-05-17T21:22:33.154Z,4.23
2018-05-17T21:25:00.793Z,3.60
2018-05-17T21:27:28.551Z,3.00
2018-05-17T21:29:56.825Z,4.17
2018-05-17T21:32:25.468Z,2.80
2018-05-17T21:34:53.419Z,4.40
2018-05-17T21:37:21.060Z,3.20
2018-05-17T21:39:48.976Z,3.30
2018-05-17T21:42:16.824Z,3.67
2018-05-17T21:44:44.812Z,4.13
2018-05-17T21:47:12.725Z,4.37
2018-05-17T21:49:40.358Z,8.10
2018-05-17T21:52:10.222Z,6.23
2018-05-17T21:54:39.328Z,9.63
2018-05-17T21:57:09.818Z,11.23
2018-05-17T21:59:38.126Z,6.70
2018-05-17T22:02:06.200Z,5.87
2018-05-17T22:04:34.349Z,6.33
2018-05-17T22:07:02.232Z,4.83
2018-05-17T22:09:31.797Z,4.87
2018-05-17T22:11:59.699Z,4.50
2018-05-17T22:14:27.884Z,5.07
2018-05-17T22:16:56.186Z,5.37
2018-05-17T22:19:24.230Z,4.77
2018-05-17T22:21:51.846Z,6.90
2018-05-17T22:24:19.759Z,7.87
2018-05-17T22:26:47.306Z,4.40
2018-05-17T22:29:14.961Z,5.83
2018-05-17T22:31:43.126Z,5.80
2018-05-17T22:34:10.679Z,5.93
2018-05-17T22:36:38.395Z,7.90
2018-05-17T22:39:06.286Z,6.67
2018-05-17T22:41:33.846Z,6.40
2018-05-17T22:44:02.399Z,7.40
2018-05-17T22:46:29.952Z,8.73
2018-05-17T22:48:57.864Z,9.87
2018-05-17T22:51:26.069Z,13.13
2018-05-17T22:53:53.702Z,9.33
2018-05-17T22:56:33.054Z,10.03
2018-05-17T22:59:00.614Z,8.33
2018-05-17T23:01:28.316Z,8.40
2018-05-17T23:03:56.130Z,9.00
2018-05-17T23:06:23.936Z,11.57
2018-05-17T23:08:51.495Z,11.30
2018-05-17T23:11:19.548Z,12.73
2018-05-17T23:13:47.588Z,10.03
2018-05-17T23:16:15.346Z,9.97
2018-05-17T23:18:42.980Z,10.07
2018-05-17T23:21:11.253Z,8.77
2018-05-17T23:23:39.886Z,8.07
2018-05-17T23:26:07.472Z,8.80
2018-05-17T23:28:35.353Z,10.77
2018-05-17T23:31:03.256Z,9.47
2018-05-17T23:33:30.844Z,11.40
2018-05-17T23:35:58.733Z,10.30
2018-05-17T23:38:26.789Z,10.80
2018-05-17T23:41:15.532Z,9.93
2018-05-17T23:43:43.126Z,7.70
2018-05-17T23:46:10.683Z,9.63
2018-05-17T23:48:38.515Z,9.30
2018-05-17T23:51:06.610Z,9.33
2018-05-17T23:53:34.156Z,10.77
2018-05-17T23:56:01.741Z,9.17
2018-05-17T23:58:29.845Z,8.93
